sensor_id;sensor_type;location;lat;lon;timestamp;P1;durP1;ratioP1;P2;durP2;ratioP2
53939;SDS011;39850;43.324;21.916;2022-12-24T00:01:59;182.0;;;136.0;;
53939;SDS011;39850;43.324;21.916;2022-12-24T00:06:36;182.0;;;136.0;;
53939;SDS011;39850;43.324;21.916;2022-12-24T00:11:12;172.0;;;128.0;;
53939;SDS011;39850;43.324;21.916;2022-12-24T00:15:49;172.0;;;128.0;;
53939;SDS011;39850;43.324;21.916;2022-12-24T01:01:47;108.0;;;86.0;;
53939;SDS011;39850;43.324;21.916;2022-12-24T01:06:23;108.0;;;86.0;;
53939;SDS011;39850;43.324;21.916;2022-12-24T01:11:00;134.0;;;102.0;;
53939;SDS011;39850;43.324;21.916;2022-12-24T01:15:38;134.0;;;102.0;;
53939;SDS011;39850;43.324;21.916;2022-12-24T01:20:16;134.0;;;102.0;;
53939;SDS011;39850;43.324;21.916;2022-12-24T01:24:53;134.0;;;102.0;;
53939;SDS011;39850;43.324;21.916;2022-12-24T01:29:30;159.0;;;117.0;;
53939;SDS011;39850;43.324;21.916;2022-12-24T01:34:07;159.0;;;117.0;;
53939;SDS011;39850;43.324;21.916;2022-12-24T02:21:47;340.0;;;216.0;;
53939;SDS011;39850;43.324;21.916;2022-12-24T02:27:09;340.0;;;216.0;;
53939;SDS011;39850;43.324;21.916;2022-12-24T02:32:01;297.0;;;198.0;;
53939;SDS011;39850;43.324;21.916;2022-12-24T02:36:56;297.0;;;198.0;;
53939;SDS011;39850;43.324;21.916;2022-12-24T02:41:47;297.0;;;198.0;;
53939;SDS011;39850;43.324;21.916;2022-12-24T02:46:31;297.0;;;198.0;;
53939;SDS011;39850;43.324;21.916;2022-12-24T02:51:10;254.0;;;180.0;;
53939;SDS011;39850;43.324;21.916;2022-12-24T02:56:23;254.0;;;180.0;;
53939;SDS011;39850;43.324;21.916;2022-12-24T05:01:58;126.0;;;92.0;;
53939;SDS011;39850;43.324;21.916;2022-12-24T05:06:34;126.0;;;92.0;;
53939;SDS011;39850;43.324;21.916;2022-12-24T05:11:12;110.0;;;82.0;;
53939;SDS011;39850;43.324;21.916;2022-12-24T05:15:48;110.0;;;82.0;;
53939;SDS011;39850;43.324;21.916;2022-12-24T05:20:24;110.0;;;82.0;;
53939;SDS011;39850;43.324;21.916;2022-12-24T05:25:01;110.0;;;82.0;;
53939;SDS011;39850;43.324;21.916;2022-12-24T05:29:37;95.0;;;72.0;;
53939;SDS011;39850;43.324;21.916;2022-12-24T05:34:15;95.0;;;72.0;;
53939;SDS011;39850;43.324;21.916;2022-12-24T06:20:20;131.0;;;98.0;;
53939;SDS011;39850;43.324;21.916;2022-12-24T06:24:56;131.0;;;98.0;;
53939;SDS011;39850;43.324;21.916;2022-12-24T06:29:32;131.0;;;98.0;;
53939;SDS011;39850;43.324;21.916;2022-12-24T06:34:08;131.0;;;98.0;;
53939;SDS011;39850;43.324;21.916;2022-12-24T06:38:46;131.0;;;98.0;;
53939;SDS011;39850;43.324;21.916;2022-12-24T06:43:23;131.0;;;98.0;;
53939;SDS011;39850;43.324;21.916;2022-12-24T06:48:00;131.0;;;98.0;;
53939;SDS011;39850;43.324;21.916;2022-12-24T09:01:28;46.0;;;42.0;;
53939;SDS011;39850;43.324;21.916;2022-12-24T09:06:07;46.0;;;42.0;;
53939;SDS011;39850;43.324;21.916;2022-12-24T09:10:44;47.0;;;42.0;;
53939;SDS011;39850;43.324;21.916;2022-12-24T09:15:20;47.0;;;42.0;;
53939;SDS011;39850;43.324;21.916;2022-12-24T09:19:56;47.0;;;42.0;;
53939;SDS011;39850;43.324;21.916;2022-12-24T09:24:32;47.0;;;42.0;;
53939;SDS011;39850;43.324;21.916;2022-12-24T09:29:10;47.0;;;42.0;;
53939;SDS011;39850;43.324;21.916;2022-12-24T09:33:49;48.0;;;42.0;;
53939;SDS011;39850;43.324;21.916;2022-12-24T09:38:27;48.0;;;42.0;;
53939;SDS011;39850;43.324;21.916;2022-12-24T11:42:59;64.0;;;54.0;;
53939;SDS011;39850;43.324;21.916;2022-12-24T11:47:39;64.0;;;54.0;;
53939;SDS011;39850;43.324;21.916;2022-12-24T11:52:23;64.0;;;54.0;;
53939;SDS011;39850;43.324;21.916;2022-12-24T11:57:08;64.0;;;54.0;;
53939;SDS011;39850;43.324;21.916;2022-12-24T12:02:00;64.0;;;54.0;;
53939;SDS011;39850;43.324;21.916;2022-12-24T12:07:00;64.0;;;54.0;;
53939;SDS011;39850;43.324;21.916;2022-12-24T13:11:17;83.0;;;74.0;;
53939;SDS011;39850;43.324;21.916;2022-12-24T13:18:45;83.0;;;74.0;;
53939;SDS011;39850;43.324;21.916;2022-12-24T13:23:30;83.0;;;74.0;;
53939;SDS011;39850;43.324;21.916;2022-12-24T13:28:33;83.0;;;74.0;;
53939;SDS011;39850;43.324;21.916;2022-12-24T13:33:46;83.0;;;74.0;;
53939;SDS011;39850;43.324;21.916;2022-12-24T13:38:41;83.0;;;74.0;;
53939;SDS011;39850;43.324;21.916;2022-12-24T14:31:33;69.0;;;64.0;;
53939;SDS011;39850;43.324;21.916;2022-12-24T14:36:13;69.0;;;64.0;;
53939;SDS011;39850;43.324;21.916;2022-12-24T14:41:08;69.0;;;64.0;;
53939;SDS011;39850;43.324;21.916;2022-12-24T14:46:14;69.0;;;64.0;;
53939;SDS011;39850;43.324;21.916;2022-12-24T14:51:16;69.0;;;64.0;;
53939;SDS011;39850;43.324;21.916;2022-12-24T14:55:57;69.0;;;64.0;;
53939;SDS011;39850;43.324;21.916;2022-12-24T15:00:33;69.0;;;64.0;;
53939;SDS011;39850;43.324;21.916;2022-12-24T15:43:16;198.0;;;158.0;;
53939;SDS011;39850;43.324;21.916;2022-12-24T15:47:59;198.0;;;158.0;;
53939;SDS011;39850;43.324;21.916;2022-12-24T15:52:41;198.0;;;158.0;;
53939;SDS011;39850;43.324;21.916;2022-12-24T15:57:28;198.0;;;158.0;;
53939;SDS011;39850;43.324;21.916;2022-12-24T16:02:39;198.0;;;158.0;;
53939;SDS011;39850;43.324;21.916;2022-12-24T16:07:25;198.0;;;158.0;;
53939;SDS011;39850;43.324;21.916;2022-12-24T17:03:07;279.0;;;230.0;;
53939;SDS011;39850;43.324;21.916;2022-12-24T17:07:44;279.0;;;230.0;;
53939;SDS011;39850;43.324;21.916;2022-12-24T17:12:20;234.0;;;196.0;;
53939;SDS011;39850;43.324;21.916;2022-12-24T17:16:56;234.0;;;196.0;;
53939;SDS011;39850;43.324;21.916;2022-12-24T17:21:33;189.0;;;163.0;;
53939;SDS011;39850;43.324;21.916;2022-12-24T17:26:11;189.0;;;163.0;;
53939;SDS011;39850;43.324;21.916;2022-12-24T17:30:49;189.0;;;163.0;;
53939;SDS011;39850;43.324;21.916;2022-12-24T17:35:26;156.0;;;137.0;;
53939;SDS011;39850;43.324;21.916;2022-12-24T17:40:05;156.0;;;137.0;;
53939;SDS011;39850;43.324;21.916;2022-12-24T17:44:44;124.0;;;111.0;;
53939;SDS011;39850;43.324;21.916;2022-12-24T17:49:21;124.0;;;111.0;;
53939;SDS011;39850;43.324;21.916;2022-12-24T18:21:39;113.0;;;98.0;;
53939;SDS011;39850;43.324;21.916;2022-12-24T18:26:19;113.0;;;98.0;;
53939;SDS011;39850;43.324;21.916;2022-12-24T18:31:03;113.0;;;98.0;;
53939;SDS011;39850;43.324;21.916;2022-12-24T18:35:44;109.0;;;96.0;;
53939;SDS011;39850;43.324;21.916;2022-12-24T18:40:20;109.0;;;96.0;;
53939;SDS011;39850;43.324;21.916;2022-12-24T18:44:56;113.0;;;98.0;;
53939;SDS011;39850;43.324;21.916;2022-12-24T18:49:33;113.0;;;98.0;;
53939;SDS011;39850;43.324;21.916;2022-12-24T18:54:10;128.0;;;112.0;;
53939;SDS011;39850;43.324;21.916;2022-12-24T18:58:51;128.0;;;112.0;;
53939;SDS011;39850;43.324;21.916;2022-12-24T19:03:28;151.0;;;132.0;;
53939;SDS011;39850;43.324;21.916;2022-12-24T19:08:04;151.0;;;132.0;;
53939;SDS011;39850;43.324;21.916;2022-12-24T19:44:57;142.0;;;126.0;;
53939;SDS011;39850;43.324;21.916;2022-12-24T19:49:33;142.0;;;126.0;;
53939;SDS011;39850;43.324;21.916;2022-12-24T19:54:10;172.0;;;150.0;;
53939;SDS011;39850;43.324;21.916;2022-12-24T19:58:47;172.0;;;150.0;;
53939;SDS011;39850;43.324;21.916;2022-12-24T20:03:24;172.0;;;150.0;;
53939;SDS011;39850;43.324;21.916;2022-12-24T20:08:00;172.0;;;150.0;;
53939;SDS011;39850;43.324;21.916;2022-12-24T20:12:36;201.0;;;174.0;;
53939;SDS011;39850;43.324;21.916;2022-12-24T20:17:12;201.0;;;174.0;;
53939;SDS011;39850;43.324;21.916;2022-12-24T21:03:27;575.0;;;490.0;;
53939;SDS011;39850;43.324;21.916;2022-12-24T21:08:03;575.0;;;490.0;;
53939;SDS011;39850;43.324;21.916;2022-12-24T21:12:42;508.0;;;441.0;;
53939;SDS011;39850;43.324;21.916;2022-12-24T21:17:18;508.0;;;441.0;;
53939;SDS011;39850;43.324;21.916;2022-12-24T21:21:55;508.0;;;441.0;;
53939;SDS011;39850;43.324;21.916;2022-12-24T21:26:32;508.0;;;441.0;;
53939;SDS011;39850;43.324;21.916;2022-12-24T21:31:11;508.0;;;441.0;;
53939;SDS011;39850;43.324;21.916;2022-12-24T21:35:48;442.0;;;392.0;;
53939;SDS011;39850;43.324;21.916;2022-12-24T21:40:24;442.0;;;392.0;;
53939;SDS011;39850;43.324;21.916;2022-12-24T22:26:27;411.0;;;347.0;;
53939;SDS011;39850;43.324;21.916;2022-12-24T22:31:03;411.0;;;347.0;;
53939;SDS011;39850;43.324;21.916;2022-12-24T22:35:40;382.0;;;322.0;;
53939;SDS011;39850;43.324;21.916;2022-12-24T22:40:17;382.0;;;322.0;;
53939;SDS011;39850;43.324;21.916;2022-12-24T22:44:53;382.0;;;322.0;;
53939;SDS011;39850;43.324;21.916;2022-12-24T22:49:30;382.0;;;322.0;;
53939;SDS011;39850;43.324;21.916;2022-12-24T22:54:07;353.0;;;296.0;;
53939;SDS011;39850;43.324;21.916;2022-12-24T22:58:44;353.0;;;296.0;;
53939;SDS011;39850;43.324;21.916;2022-12-24T23:44:51;363.0;;;277.0;;
53939;SDS011;39850;43.324;21.916;2022-12-24T23:49:27;363.0;;;277.0;;
53939;SDS011;39850;43.324;21.916;2022-12-24T23:54:03;346.0;;;262.0;;
53939;SDS011;39850;43.324;21.916;2022-12-24T23:58:43;346.0;;;262.0;;
